createdAt,value
2022-11-25T00:00:07.617Z,22.63
2022-11-25T00:05:14.695Z,20.70
2022-11-25T00:10:19.301Z,32.10
2022-11-25T00:15:23.021Z,18.88
2022-11-25T00:20:27.420Z,20.48
2022-11-25T00:25:30.843Z,22.90
2022-11-25T00:30:34.328Z,20.80
2022-11-25T00:35:37.684Z,20.65
2022-11-25T00:40:41.150Z,21.65
2022-11-25T00:45:46.286Z,46.10
2022-11-25T00:50:49.680Z,29.65
2022-11-25T01:00:58.875Z,27.45
2022-11-25T01:06:06.813Z,28.20
2022-11-25T01:11:17.844Z,27.08
2022-11-25T01:16:21.958Z,22.52
2022-11-25T01:21:30.868Z,29.85
2022-11-25T01:26:35.623Z,22.85
2022-11-25T01:31:39.458Z,29.25
2022-11-25T01:36:43.087Z,40.35
2022-11-25T01:41:47.228Z,37.40
2022-11-25T01:46:59.185Z,40.97
2022-11-25T01:52:30.924Z,43.60
2022-11-25T01:57:49.002Z,32.92
2022-11-25T02:02:55.113Z,40.05
2022-11-25T02:07:58.996Z,34.58
2022-11-25T02:13:02.560Z,30.65
2022-11-25T02:18:07.175Z,32.38
2022-11-25T02:23:37.156Z,23.52
2022-11-25T02:28:40.863Z,24.58
2022-11-25T02:33:44.354Z,20.45
2022-11-25T02:38:57.061Z,26.33
2022-11-25T02:44:05.345Z,30.35
2022-11-25T02:49:10.607Z,24.05
2022-11-25T02:54:16.500Z,14.57
2022-11-25T02:59:20.488Z,19.65
2022-11-25T03:04:24.812Z,11.85
2022-11-25T03:09:30.467Z,15.25
2022-11-25T03:14:34.790Z,12.27
2022-11-25T03:19:38.392Z,18.85
2022-11-25T03:24:42.824Z,15.25
2022-11-25T03:29:46.295Z,9.27
2022-11-25T03:34:50.225Z,17.55
2022-11-25T03:39:55.060Z,9.57
2022-11-25T03:44:58.770Z,11.48
2022-11-25T03:50:02.654Z,10.43
2022-11-25T03:55:08.023Z,13.02
2022-11-25T04:00:13.524Z,11.27
2022-11-25T04:05:36.175Z,6.95
2022-11-25T04:10:43.303Z,9.30
2022-11-25T04:15:49.232Z,6.55
2022-11-25T04:20:53.665Z,9.00
2022-11-25T04:25:57.346Z,5.35
2022-11-25T04:31:09.782Z,7.47
2022-11-25T04:36:16.529Z,11.32
2022-11-25T04:41:20.039Z,10.23
2022-11-25T04:46:31.476Z,10.48
2022-11-25T04:51:38.397Z,7.28
2022-11-25T04:56:43.627Z,8.20
2022-11-25T05:01:47.231Z,10.93
2022-11-25T05:07:21.898Z,14.48
2022-11-25T05:12:29.665Z,11.80
2022-11-25T05:17:34.802Z,10.30
2022-11-25T05:22:38.556Z,12.05
2022-11-25T05:27:44.110Z,16.85
2022-11-25T05:32:50.352Z,16.52
2022-11-25T05:37:54.918Z,14.00
2022-11-25T05:43:01.399Z,11.27
2022-11-25T05:48:06.629Z,11.00
2022-11-25T05:53:11.148Z,30.77
2022-11-25T05:58:14.537Z,9.23
2022-11-25T06:03:25.955Z,18.95
2022-11-25T06:08:30.426Z,10.70
2022-11-25T06:13:35.079Z,8.00
2022-11-25T06:18:39.186Z,15.20
2022-11-25T06:23:45.586Z,13.80
2022-11-25T06:28:55.977Z,8.60
2022-11-25T06:34:00.473Z,22.50
2022-11-25T06:39:04.055Z,18.23
2022-11-25T06:44:07.485Z,17.67
2022-11-25T06:49:11.305Z,19.52
2022-11-25T06:54:14.680Z,15.40
2022-11-25T06:59:18.728Z,21.90
2022-11-25T07:04:22.114Z,12.13
2022-11-25T07:09:25.516Z,14.10
2022-11-25T07:14:29.045Z,16.35
2022-11-25T07:19:37.341Z,16.42
2022-11-25T07:24:40.803Z,25.05
2022-11-25T07:30:03.180Z,23.80
2022-11-25T07:35:07.719Z,18.30
2022-11-25T07:40:14.373Z,16.80
2022-11-25T07:45:20.674Z,15.32
2022-11-25T07:50:29.289Z,7.53
2022-11-25T07:55:33.178Z,8.48
2022-11-25T08:00:37.292Z,12.00
2022-11-25T08:10:44.238Z,14.93
2022-11-25T08:15:47.791Z,4.40
2022-11-25T08:20:51.900Z,7.47
2022-11-25T08:25:55.751Z,10.40
2022-11-25T08:31:07.894Z,5.18
2022-11-25T08:36:11.845Z,8.23
2022-11-25T08:41:19.283Z,8.32
2022-11-25T08:46:25.744Z,13.27
2022-11-25T08:51:33.041Z,9.60
2022-11-25T08:56:36.859Z,12.32
2022-11-25T09:01:43.389Z,19.08
2022-11-25T09:06:47.260Z,37.30
2022-11-25T09:11:50.637Z,21.70
2022-11-25T09:16:55.476Z,34.05
2022-11-25T09:22:00.066Z,20.73
2022-11-25T09:27:04.600Z,24.55
2022-11-25T09:32:08.903Z,35.67
2022-11-25T09:37:12.498Z,46.85
2022-11-25T09:42:25.062Z,58.45
2022-11-25T09:47:47.012Z,43.30
2022-11-25T09:53:27.978Z,29.00
2022-11-25T09:58:48.916Z,23.95
2022-11-25T10:04:13.268Z,27.10
2022-11-25T10:09:22.779Z,17.70
2022-11-25T10:14:51.875Z,28.52
2022-11-25T10:20:20.655Z,20.88
2022-11-25T10:25:27.903Z,25.95
2022-11-25T10:30:39.301Z,23.58
2022-11-25T10:36:04.857Z,17.00
2022-11-25T10:41:18.044Z,13.63
2022-11-25T10:47:12.425Z,9.13
2022-11-25T10:52:13.277Z,11.52
2022-11-25T10:57:19.925Z,10.52
2022-11-25T11:02:29.457Z,16.67
2022-11-25T11:07:36.489Z,9.50
2022-11-25T11:12:59.496Z,11.88
2022-11-25T11:18:38.235Z,5.88
2022-11-25T11:23:51.541Z,12.50
2022-11-25T11:28:59.750Z,14.23
2022-11-25T11:34:42.001Z,12.38
2022-11-25T11:40:11.510Z,18.48
2022-11-25T11:45:25.110Z,13.98
2022-11-25T11:50:45.172Z,8.73
2022-11-25T11:56:41.343Z,16.95
2022-11-25T12:02:16.187Z,9.40
2022-11-25T12:07:41.108Z,16.75
2022-11-25T12:13:03.017Z,19.88
2022-11-25T12:18:36.819Z,11.90
2022-11-25T12:24:38.268Z,15.05
2022-11-25T12:30:03.250Z,13.77
2022-11-25T12:35:10.747Z,8.85
2022-11-25T12:40:19.327Z,17.08
2022-11-25T12:45:25.267Z,10.45
2022-11-25T12:50:42.183Z,12.18
2022-11-25T12:55:45.847Z,14.52
2022-11-25T13:01:05.903Z,17.17
2022-11-25T13:06:33.527Z,8.27
2022-11-25T13:12:05.111Z,19.80
2022-11-25T13:17:12.565Z,16.63
2022-11-25T13:22:22.691Z,10.70
2022-11-25T13:27:52.968Z,21.70
2022-11-25T13:32:57.968Z,17.75
2022-11-25T13:38:35.288Z,22.05
2022-11-25T13:44:05.374Z,17.77
2022-11-25T13:49:40.509Z,13.30
2022-11-25T14:00:20.948Z,15.77
2022-11-25T14:05:43.061Z,15.43
2022-11-25T14:10:51.386Z,8.05
2022-11-25T14:17:22.019Z,12.27
2022-11-25T14:25:20.974Z,13.02
2022-11-25T14:29:20.417Z,11.70
2022-11-25T14:34:41.430Z,13.25
2022-11-25T14:59:56.790Z,12.32
2022-11-25T15:05:21.502Z,11.30
2022-11-25T15:10:38.375Z,13.75
2022-11-25T15:15:45.715Z,13.57
2022-11-25T15:20:53.549Z,9.85
2022-11-25T15:25:56.781Z,8.07
2022-11-25T15:31:01.854Z,10.40
2022-11-25T15:36:05.931Z,15.05
2022-11-25T15:41:19.596Z,9.80
2022-11-25T15:46:25.648Z,14.35
2022-11-25T15:51:54.146Z,14.25
2022-11-25T15:57:11.994Z,9.95
2022-11-25T16:02:44.550Z,17.08
2022-11-25T16:07:50.950Z,11.98
2022-11-25T16:13:21.527Z,16.90
2022-11-25T16:18:53.580Z,9.38
2022-11-25T16:24:05.733Z,14.32
2022-11-25T16:29:19.180Z,7.30
2022-11-25T16:34:22.928Z,7.97
2022-11-25T16:39:26.208Z,8.07
2022-11-25T16:44:30.060Z,15.65
2022-11-25T16:49:33.515Z,13.38
2022-11-25T16:54:38.309Z,8.15
2022-11-25T17:04:47.503Z,14.05
2022-11-25T17:09:53.658Z,8.98
2022-11-25T17:15:00.330Z,4.88
2022-11-25T17:20:04.886Z,9.52
2022-11-25T17:25:10.024Z,9.90
2022-11-25T17:30:23.507Z,10.27
2022-11-25T17:35:27.994Z,13.15
2022-11-25T17:40:31.870Z,14.50
2022-11-25T17:45:36.160Z,11.80
2022-11-25T17:50:39.925Z,17.77
2022-11-25T17:55:43.123Z,17.92
2022-11-25T18:00:46.686Z,14.65
2022-11-25T18:05:51.376Z,16.85
2022-11-25T18:10:55.077Z,6.93
2022-11-25T18:15:58.405Z,12.73
2022-11-25T18:21:02.000Z,7.95
2022-11-25T18:26:05.755Z,5.18
2022-11-25T18:31:11.371Z,12.02
2022-11-25T18:36:14.994Z,14.73
2022-11-25T18:41:26.165Z,21.83
2022-11-25T18:46:37.145Z,12.15
2022-11-25T18:51:41.632Z,12.38
2022-11-25T18:56:51.034Z,9.07
2022-11-25T19:01:55.197Z,8.35
2022-11-25T19:07:00.013Z,12.43
2022-11-25T19:12:04.099Z,10.85
2022-11-25T19:17:18.230Z,11.85
2022-11-25T19:22:23.187Z,10.93
2022-11-25T19:27:26.957Z,7.82
2022-11-25T19:32:33.504Z,4.53
2022-11-25T19:37:36.748Z,11.00
2022-11-25T19:47:47.343Z,13.80
2022-11-25T19:52:51.513Z,15.05
2022-11-25T19:57:55.308Z,11.38
2022-11-25T20:02:59.625Z,9.35
2022-11-25T20:08:03.295Z,15.38
2022-11-25T20:13:07.379Z,9.98
2022-11-25T20:18:18.114Z,5.90
2022-11-25T20:23:36.304Z,15.63
2022-11-25T20:28:42.026Z,14.50
2022-11-25T20:33:46.473Z,13.68
2022-11-25T20:38:52.801Z,9.05
2022-11-25T20:43:58.012Z,20.25
2022-11-25T20:49:02.860Z,6.97
2022-11-25T20:54:06.988Z,6.70
2022-11-25T20:59:22.168Z,7.32
2022-11-25T21:04:25.463Z,10.88
2022-11-25T21:14:35.412Z,10.43
2022-11-25T21:19:39.021Z,14.80
2022-11-25T21:29:46.400Z,14.05
2022-11-25T21:34:50.554Z,14.05
2022-11-25T21:39:54.114Z,13.30
2022-11-25T21:44:59.805Z,16.20
2022-11-25T21:50:12.891Z,10.38
2022-11-25T21:55:17.112Z,9.23
2022-11-25T22:00:25.542Z,10.23
2022-11-25T22:05:29.076Z,7.38
2022-11-25T22:10:32.943Z,7.22
2022-11-25T22:15:36.428Z,4.40
2022-11-25T22:20:40.563Z,9.43
2022-11-25T22:25:44.618Z,11.98
2022-11-25T22:30:53.795Z,10.05
2022-11-25T22:35:58.781Z,9.88
2022-11-25T22:41:04.187Z,16.45
2022-11-25T22:46:07.584Z,20.30
2022-11-25T22:51:21.676Z,13.77
2022-11-25T22:56:25.602Z,20.65
2022-11-25T23:01:30.103Z,18.17
2022-11-25T23:11:40.004Z,13.93
2022-11-25T23:16:43.990Z,18.55
2022-11-25T23:21:47.498Z,14.85
2022-11-25T23:26:50.793Z,13.68
2022-11-25T23:36:58.513Z,11.57
2022-11-25T23:42:01.854Z,9.43
2022-11-25T23:52:15.042Z,20.80
2022-11-25T23:57:19.881Z,16.38
